sensor_id;sensor_type;location;lat;lon;timestamp;P1;P2;P0
73414;PMS5003;61633;53.742;-2.990;2022-10-31T00:01:18;4;4;
73414;PMS5003;61633;53.742;-2.990;2022-10-31T00:03:42;7;4;
73414;PMS5003;61633;53.742;-2.990;2022-10-31T00:06:07;5;4;
73414;PMS5003;61633;53.742;-2.990;2022-10-31T00:08:33;5;3;
73414;PMS5003;61633;53.742;-2.990;2022-10-31T00:10:58;9;4;
73414;PMS5003;61633;53.742;-2.990;2022-10-31T00:13:24;3;3;
73414;PMS5003;61633;53.742;-2.990;2022-10-31T00:15:49;6;5;
73414;PMS5003;61633;53.742;-2.990;2022-10-31T00:18:15;5;4;
73414;PMS5003;61633;53.742;-2.990;2022-10-31T00:20:40;6;5;
73414;PMS5003;61633;53.742;-2.990;2022-10-31T00:23:06;3;3;
73414;PMS5003;61633;53.742;-2.990;2022-10-31T00:25:33;3;3;
73414;PMS5003;61633;53.742;-2.990;2022-10-31T00:27:57;7;5;
73414;PMS5003;61633;53.742;-2.990;2022-10-31T00:30:22;3;3;
73414;PMS5003;61633;53.742;-2.990;2022-10-31T00:32:47;4;4;
73414;PMS5003;61633;53.742;-2.990;2022-10-31T00:35:13;6;4;
73414;PMS5003;61633;53.742;-2.990;2022-10-31T00:37:38;6;5;
73414;PMS5003;61633;53.742;-2.990;2022-10-31T00:40:09;4;3;
73414;PMS5003;61633;53.742;-2.990;2022-10-31T00:42:29;8;5;
73414;PMS5003;61633;53.742;-2.990;2022-10-31T00:44:55;4;3;
73414;PMS5003;61633;53.742;-2.990;2022-10-31T00:47:20;3;3;
73414;PMS5003;61633;53.742;-2.990;2022-10-31T00:49:46;5;4;
73414;PMS5003;61633;53.742;-2.990;2022-10-31T00:52:11;7;5;
73414;PMS5003;61633;53.742;-2.990;2022-10-31T00:54:36;6;3;
73414;PMS5003;61633;53.742;-2.990;2022-10-31T00:57:03;3;2;
73414;PMS5003;61633;53.742;-2.990;2022-10-31T00:59:28;7;6;
73414;PMS5003;61633;53.742;-2.990;2022-10-31T01:01:53;8;4;
73414;PMS5003;61633;53.742;-2.990;2022-10-31T01:04:18;5;5;
73414;PMS5003;61633;53.742;-2.990;2022-10-31T01:06:45;6;4;
73414;PMS5003;61633;53.742;-2.990;2022-10-31T01:09:09;9;7;
73414;PMS5003;61633;53.742;-2.990;2022-10-31T01:11:35;5;4;
73414;PMS5003;61633;53.742;-2.990;2022-10-31T01:14:00;7;6;
73414;PMS5003;61633;53.742;-2.990;2022-10-31T01:16:26;7;5;
73414;PMS5003;61633;53.742;-2.990;2022-10-31T01:18:51;8;4;
73414;PMS5003;61633;53.742;-2.990;2022-10-31T01:21:18;3;3;
73414;PMS5003;61633;53.742;-2.990;2022-10-31T01:23:42;5;4;
73414;PMS5003;61633;53.742;-2.990;2022-10-31T01:26:09;4;4;
73414;PMS5003;61633;53.742;-2.990;2022-10-31T01:28:34;5;5;
73414;PMS5003;61633;53.742;-2.990;2022-10-31T01:31:00;5;4;
73414;PMS5003;61633;53.742;-2.990;2022-10-31T01:33:24;7;6;
73414;PMS5003;61633;53.742;-2.990;2022-10-31T01:35:50;3;3;
73414;PMS5003;61633;53.742;-2.990;2022-10-31T01:38:15;6;4;
73414;PMS5003;61633;53.742;-2.990;2022-10-31T01:40:41;7;5;
73414;PMS5003;61633;53.742;-2.990;2022-10-31T01:43:08;5;5;
73414;PMS5003;61633;53.742;-2.990;2022-10-31T01:45:32;4;4;
73414;PMS5003;61633;53.742;-2.990;2022-10-31T01:47:57;3;3;
73414;PMS5003;61633;53.742;-2.990;2022-10-31T01:50:26;8;7;
73414;PMS5003;61633;53.742;-2.990;2022-10-31T01:52:49;9;7;
73414;PMS5003;61633;53.742;-2.990;2022-10-31T01:55:15;7;6;
73414;PMS5003;61633;53.742;-2.990;2022-10-31T01:57:40;6;4;
73414;PMS5003;61633;53.742;-2.990;2022-10-31T02:00:07;6;5;
73414;PMS5003;61633;53.742;-2.990;2022-10-31T02:02:30;7;5;
73414;PMS5003;61633;53.742;-2.990;2022-10-31T02:04:56;4;4;
73414;PMS5003;61633;53.742;-2.990;2022-10-31T02:07:23;5;5;
73414;PMS5003;61633;53.742;-2.990;2022-10-31T02:09:47;8;6;
73414;PMS5003;61633;53.742;-2.990;2022-10-31T02:12:13;7;6;
73414;PMS5003;61633;53.742;-2.990;2022-10-31T02:14:38;12;9;
73414;PMS5003;61633;53.742;-2.990;2022-10-31T02:17:08;8;6;
73414;PMS5003;61633;53.742;-2.990;2022-10-31T02:19:30;6;5;
73414;PMS5003;61633;53.742;-2.990;2022-10-31T02:21:56;11;7;
73414;PMS5003;61633;53.742;-2.990;2022-10-31T02:24:25;13;7;
73414;PMS5003;61633;53.742;-2.990;2022-10-31T02:26:51;8;7;
73414;PMS5003;61633;53.742;-2.990;2022-10-31T02:31:37;6;5;
73414;PMS5003;61633;53.742;-2.990;2022-10-31T02:34:02;5;5;
73414;PMS5003;61633;53.742;-2.990;2022-10-31T02:36:28;6;6;
73414;PMS5003;61633;53.742;-2.990;2022-10-31T02:38:55;7;6;
73414;PMS5003;61633;53.742;-2.990;2022-10-31T02:41:19;8;8;
73414;PMS5003;61633;53.742;-2.990;2022-10-31T02:43:44;9;5;
73414;PMS5003;61633;53.742;-2.990;2022-10-31T02:46:11;10;8;
73414;PMS5003;61633;53.742;-2.990;2022-10-31T02:48:34;5;5;
73414;PMS5003;61633;53.742;-2.990;2022-10-31T02:51:00;6;6;
73414;PMS5003;61633;53.742;-2.990;2022-10-31T02:53:25;11;9;
73414;PMS5003;61633;53.742;-2.990;2022-10-31T02:55:53;9;6;
73414;PMS5003;61633;53.742;-2.990;2022-10-31T02:58:21;6;6;
73414;PMS5003;61633;53.742;-2.990;2022-10-31T03:00:42;8;6;
73414;PMS5003;61633;53.742;-2.990;2022-10-31T03:03:07;10;8;
73414;PMS5003;61633;53.742;-2.990;2022-10-31T03:05:35;9;8;
73414;PMS5003;61633;53.742;-2.990;2022-10-31T03:07:59;10;9;
73414;PMS5003;61633;53.742;-2.990;2022-10-31T03:10:25;9;7;
73414;PMS5003;61633;53.742;-2.990;2022-10-31T03:12:52;10;10;
73414;PMS5003;61633;53.742;-2.990;2022-10-31T03:15:17;11;7;
73414;PMS5003;61633;53.742;-2.990;2022-10-31T03:17:42;8;6;
73414;PMS5003;61633;53.742;-2.990;2022-10-31T03:20:06;6;5;
73414;PMS5003;61633;53.742;-2.990;2022-10-31T03:22:31;6;6;
73414;PMS5003;61633;53.742;-2.990;2022-10-31T03:24:56;7;7;
73414;PMS5003;61633;53.742;-2.990;2022-10-31T03:27:23;11;8;
73414;PMS5003;61633;53.742;-2.990;2022-10-31T03:29:47;12;8;
73414;PMS5003;61633;53.742;-2.990;2022-10-31T03:32:14;8;7;
73414;PMS5003;61633;53.742;-2.990;2022-10-31T03:34:39;6;6;
73414;PMS5003;61633;53.742;-2.990;2022-10-31T03:37:10;7;7;
73414;PMS5003;61633;53.742;-2.990;2022-10-31T03:39:30;7;6;
73414;PMS5003;61633;53.742;-2.990;2022-10-31T03:41:56;10;8;
73414;PMS5003;61633;53.742;-2.990;2022-10-31T04:54:38;5;5;
73414;PMS5003;61633;53.742;-2.990;2022-10-31T04:57:04;10;7;
73414;PMS5003;61633;53.742;-2.990;2022-10-31T04:59:30;10;8;
73414;PMS5003;61633;53.742;-2.990;2022-10-31T05:01:55;14;11;
73414;PMS5003;61633;53.742;-2.990;2022-10-31T05:04:21;7;6;
73414;PMS5003;61633;53.742;-2.990;2022-10-31T05:06:46;9;8;
73414;PMS5003;61633;53.742;-2.990;2022-10-31T05:09:12;5;5;
73414;PMS5003;61633;53.742;-2.990;2022-10-31T05:11:37;4;4;
73414;PMS5003;61633;53.742;-2.990;2022-10-31T05:14:04;9;7;
73414;PMS5003;61633;53.742;-2.990;2022-10-31T05:16:29;7;7;
73414;PMS5003;61633;53.742;-2.990;2022-10-31T05:18:54;6;6;
73414;PMS5003;61633;53.742;-2.990;2022-10-31T05:21:20;9;7;
73414;PMS5003;61633;53.742;-2.990;2022-10-31T05:23:46;7;7;
73414;PMS5003;61633;53.742;-2.990;2022-10-31T05:26:11;7;6;
73414;PMS5003;61633;53.742;-2.990;2022-10-31T05:28:37;8;8;
73414;PMS5003;61633;53.742;-2.990;2022-10-31T05:31:07;7;7;
73414;PMS5003;61633;53.742;-2.990;2022-10-31T05:33:28;6;6;
73414;PMS5003;61633;53.742;-2.990;2022-10-31T05:35:53;8;7;
73414;PMS5003;61633;53.742;-2.990;2022-10-31T05:38:18;7;6;
73414;PMS5003;61633;53.742;-2.990;2022-10-31T05:40:44;9;7;
73414;PMS5003;61633;53.742;-2.990;2022-10-31T05:43:10;9;9;
73414;PMS5003;61633;53.742;-2.990;2022-10-31T05:45:36;20;16;
73414;PMS5003;61633;53.742;-2.990;2022-10-31T05:48:01;6;6;
73414;PMS5003;61633;53.742;-2.990;2022-10-31T05:50:28;11;7;
73414;PMS5003;61633;53.742;-2.990;2022-10-31T05:52:54;7;5;
73414;PMS5003;61633;53.742;-2.990;2022-10-31T05:55:18;9;7;
73414;PMS5003;61633;53.742;-2.990;2022-10-31T05:57:43;10;9;
73414;PMS5003;61633;53.742;-2.990;2022-10-31T06:00:09;9;7;
73414;PMS5003;61633;53.742;-2.990;2022-10-31T06:02:35;8;7;
73414;PMS5003;61633;53.742;-2.990;2022-10-31T06:05:01;8;6;
73414;PMS5003;61633;53.742;-2.990;2022-10-31T06:07:26;9;6;
73414;PMS5003;61633;53.742;-2.990;2022-10-31T06:09:52;9;8;
73414;PMS5003;61633;53.742;-2.990;2022-10-31T06:12:17;8;7;
73414;PMS5003;61633;53.742;-2.990;2022-10-31T06:14:43;7;6;
73414;PMS5003;61633;53.742;-2.990;2022-10-31T06:17:08;5;5;
73414;PMS5003;61633;53.742;-2.990;2022-10-31T06:19:34;5;4;
73414;PMS5003;61633;53.742;-2.990;2022-10-31T06:22:00;8;5;
73414;PMS5003;61633;53.742;-2.990;2022-10-31T06:24:25;9;6;
73414;PMS5003;61633;53.742;-2.990;2022-10-31T06:26:50;8;7;
73414;PMS5003;61633;53.742;-2.990;2022-10-31T06:29:15;7;6;
73414;PMS5003;61633;53.742;-2.990;2022-10-31T06:31:41;8;7;
73414;PMS5003;61633;53.742;-2.990;2022-10-31T06:34:07;6;5;
73414;PMS5003;61633;53.742;-2.990;2022-10-31T06:36:32;7;6;
73414;PMS5003;61633;53.742;-2.990;2022-10-31T06:38:58;6;6;
73414;PMS5003;61633;53.742;-2.990;2022-10-31T06:41:23;9;9;
73414;PMS5003;61633;53.742;-2.990;2022-10-31T06:43:49;7;6;
73414;PMS5003;61633;53.742;-2.990;2022-10-31T06:46:14;12;8;
73414;PMS5003;61633;53.742;-2.990;2022-10-31T06:48:40;11;8;
73414;PMS5003;61633;53.742;-2.990;2022-10-31T06:51:05;10;8;
73414;PMS5003;61633;53.742;-2.990;2022-10-31T06:53:31;7;5;
73414;PMS5003;61633;53.742;-2.990;2022-10-31T06:55:56;7;7;
73414;PMS5003;61633;53.742;-2.990;2022-10-31T06:58:22;11;8;
73414;PMS5003;61633;53.742;-2.990;2022-10-31T07:00:48;5;5;
73414;PMS5003;61633;53.742;-2.990;2022-10-31T07:03:13;9;8;
73414;PMS5003;61633;53.742;-2.990;2022-10-31T07:05:39;4;4;
73414;PMS5003;61633;53.742;-2.990;2022-10-31T07:08:10;6;5;
73414;PMS5003;61633;53.742;-2.990;2022-10-31T07:10:31;7;7;
73414;PMS5003;61633;53.742;-2.990;2022-10-31T07:12:56;10;6;
73414;PMS5003;61633;53.742;-2.990;2022-10-31T07:15:21;7;6;
73414;PMS5003;61633;53.742;-2.990;2022-10-31T07:17:46;8;7;
73414;PMS5003;61633;53.742;-2.990;2022-10-31T07:20:12;8;7;
73414;PMS5003;61633;53.742;-2.990;2022-10-31T07:22:38;6;5;
73414;PMS5003;61633;53.742;-2.990;2022-10-31T07:25:05;9;8;
73414;PMS5003;61633;53.742;-2.990;2022-10-31T07:27:29;11;5;
73414;PMS5003;61633;53.742;-2.990;2022-10-31T07:29:54;7;7;
73414;PMS5003;61633;53.742;-2.990;2022-10-31T07:32:20;6;6;
73414;PMS5003;61633;53.742;-2.990;2022-10-31T07:34:45;11;9;
73414;PMS5003;61633;53.742;-2.990;2022-10-31T07:37:11;7;6;
73414;PMS5003;61633;53.742;-2.990;2022-10-31T07:39:36;6;5;
73414;PMS5003;61633;53.742;-2.990;2022-10-31T07:42:02;9;7;
73414;PMS5003;61633;53.742;-2.990;2022-10-31T07:44:27;6;6;
73414;PMS5003;61633;53.742;-2.990;2022-10-31T07:46:53;14;11;
73414;PMS5003;61633;53.742;-2.990;2022-10-31T07:49:18;7;5;
73414;PMS5003;61633;53.742;-2.990;2022-10-31T07:51:44;11;10;
73414;PMS5003;61633;53.742;-2.990;2022-10-31T07:54:10;5;5;
73414;PMS5003;61633;53.742;-2.990;2022-10-31T07:56:35;6;5;
73414;PMS5003;61633;53.742;-2.990;2022-10-31T07:59:01;10;7;
73414;PMS5003;61633;53.742;-2.990;2022-10-31T08:01:26;8;5;
73414;PMS5003;61633;53.742;-2.990;2022-10-31T08:03:52;9;8;
73414;PMS5003;61633;53.742;-2.990;2022-10-31T08:06:18;9;6;
73414;PMS5003;61633;53.742;-2.990;2022-10-31T08:08:43;9;9;
73414;PMS5003;61633;53.742;-2.990;2022-10-31T08:11:09;7;6;
73414;PMS5003;61633;53.742;-2.990;2022-10-31T08:13:34;7;6;
73414;PMS5003;61633;53.742;-2.990;2022-10-31T08:16:00;7;7;
73414;PMS5003;61633;53.742;-2.990;2022-10-31T08:18:25;9;8;
73414;PMS5003;61633;53.742;-2.990;2022-10-31T08:20:51;7;6;
73414;PMS5003;61633;53.742;-2.990;2022-10-31T08:23:16;6;6;
73414;PMS5003;61633;53.742;-2.990;2022-10-31T08:25:41;9;6;
73414;PMS5003;61633;53.742;-2.990;2022-10-31T08:28:07;6;6;
73414;PMS5003;61633;53.742;-2.990;2022-10-31T08:30:34;8;5;
73414;PMS5003;61633;53.742;-2.990;2022-10-31T08:32:58;12;9;
73414;PMS5003;61633;53.742;-2.990;2022-10-31T08:35:23;6;5;
73414;PMS5003;61633;53.742;-2.990;2022-10-31T08:37:51;7;7;
73414;PMS5003;61633;53.742;-2.990;2022-10-31T08:40:14;13;7;
73414;PMS5003;61633;53.742;-2.990;2022-10-31T08:42:40;9;7;
73414;PMS5003;61633;53.742;-2.990;2022-10-31T08:45:10;8;7;
73414;PMS5003;61633;53.742;-2.990;2022-10-31T08:47:30;4;4;
73414;PMS5003;61633;53.742;-2.990;2022-10-31T08:49:56;11;8;
73414;PMS5003;61633;53.742;-2.990;2022-10-31T08:52:22;5;5;
73414;PMS5003;61633;53.742;-2.990;2022-10-31T08:54:46;7;5;
73414;PMS5003;61633;53.742;-2.990;2022-10-31T08:57:12;7;6;
73414;PMS5003;61633;53.742;-2.990;2022-10-31T08:59:37;5;5;
73414;PMS5003;61633;53.742;-2.990;2022-10-31T09:02:05;7;6;
73414;PMS5003;61633;53.742;-2.990;2022-10-31T09:04:28;5;5;
73414;PMS5003;61633;53.742;-2.990;2022-10-31T09:06:54;7;5;
73414;PMS5003;61633;53.742;-2.990;2022-10-31T09:09:19;6;5;
73414;PMS5003;61633;53.742;-2.990;2022-10-31T09:11:44;5;4;
73414;PMS5003;61633;53.742;-2.990;2022-10-31T09:14:09;5;5;
73414;PMS5003;61633;53.742;-2.990;2022-10-31T09:16:35;8;6;
73414;PMS5003;61633;53.742;-2.990;2022-10-31T09:19:01;5;5;
73414;PMS5003;61633;53.742;-2.990;2022-10-31T09:21:26;10;9;
73414;PMS5003;61633;53.742;-2.990;2022-10-31T09:23:52;10;4;
73414;PMS5003;61633;53.742;-2.990;2022-10-31T09:26:17;6;6;
73414;PMS5003;61633;53.742;-2.990;2022-10-31T09:28:43;7;6;
73414;PMS5003;61633;53.742;-2.990;2022-10-31T09:31:08;9;5;
73414;PMS5003;61633;53.742;-2.990;2022-10-31T09:33:34;8;5;
73414;PMS5003;61633;53.742;-2.990;2022-10-31T09:35:59;5;5;
73414;PMS5003;61633;53.742;-2.990;2022-10-31T09:38:24;6;5;
73414;PMS5003;61633;53.742;-2.990;2022-10-31T09:40:52;3;2;
73414;PMS5003;61633;53.742;-2.990;2022-10-31T09:43:17;4;3;
73414;PMS5003;61633;53.742;-2.990;2022-10-31T09:45:43;5;4;
73414;PMS5003;61633;53.742;-2.990;2022-10-31T09:48:09;7;6;
73414;PMS5003;61633;53.742;-2.990;2022-10-31T09:50:35;6;6;
73414;PMS5003;61633;53.742;-2.990;2022-10-31T09:52:58;6;5;
73414;PMS5003;61633;53.742;-2.990;2022-10-31T09:55:24;5;3;
73414;PMS5003;61633;53.742;-2.990;2022-10-31T09:57:48;4;3;
73414;PMS5003;61633;53.742;-2.990;2022-10-31T10:00:15;5;5;
73414;PMS5003;61633;53.742;-2.990;2022-10-31T10:02:39;5;5;
73414;PMS5003;61633;53.742;-2.990;2022-10-31T10:05:09;7;5;
73414;PMS5003;61633;53.742;-2.990;2022-10-31T10:07:32;8;5;
73414;PMS5003;61633;53.742;-2.990;2022-10-31T10:09:55;9;6;
73414;PMS5003;61633;53.742;-2.990;2022-10-31T10:12:23;6;6;
73414;PMS5003;61633;53.742;-2.990;2022-10-31T10:14:51;7;6;
73414;PMS5003;61633;53.742;-2.990;2022-10-31T10:17:15;9;6;
73414;PMS5003;61633;53.742;-2.990;2022-10-31T10:19:42;7;6;
73414;PMS5003;61633;53.742;-2.990;2022-10-31T10:22:04;6;6;
73414;PMS5003;61633;53.742;-2.990;2022-10-31T10:24:32;7;4;
73414;PMS5003;61633;53.742;-2.990;2022-10-31T10:26:54;6;6;
73414;PMS5003;61633;53.742;-2.990;2022-10-31T10:29:24;7;7;
73414;PMS5003;61633;53.742;-2.990;2022-10-31T10:31:43;8;5;
73414;PMS5003;61633;53.742;-2.990;2022-10-31T10:34:11;4;4;
73414;PMS5003;61633;53.742;-2.990;2022-10-31T10:36:36;3;3;
73414;PMS5003;61633;53.742;-2.990;2022-10-31T10:39:00;8;7;
73414;PMS5003;61633;53.742;-2.990;2022-10-31T10:41:27;6;4;
73414;PMS5003;61633;53.742;-2.990;2022-10-31T10:43:51;6;4;
73414;PMS5003;61633;53.742;-2.990;2022-10-31T10:46:17;10;7;
73414;PMS5003;61633;53.742;-2.990;2022-10-31T10:48:43;5;4;
73414;PMS5003;61633;53.742;-2.990;2022-10-31T10:51:10;8;6;
73414;PMS5003;61633;53.742;-2.990;2022-10-31T10:53:39;2;2;
73414;PMS5003;61633;53.742;-2.990;2022-10-31T10:56:00;4;2;
73414;PMS5003;61633;53.742;-2.990;2022-10-31T10:58:24;7;4;
73414;PMS5003;61633;53.742;-2.990;2022-10-31T11:00:50;6;5;
73414;PMS5003;61633;53.742;-2.990;2022-10-31T11:03:15;6;5;
73414;PMS5003;61633;53.742;-2.990;2022-10-31T11:05:41;4;4;
73414;PMS5003;61633;53.742;-2.990;2022-10-31T11:08:06;6;6;
73414;PMS5003;61633;53.742;-2.990;2022-10-31T11:10:32;3;3;
73414;PMS5003;61633;53.742;-2.990;2022-10-31T11:13:00;6;4;
73414;PMS5003;61633;53.742;-2.990;2022-10-31T11:15:23;3;3;
73414;PMS5003;61633;53.742;-2.990;2022-10-31T11:17:49;9;6;
73414;PMS5003;61633;53.742;-2.990;2022-10-31T11:20:24;4;4;
73414;PMS5003;61633;53.742;-2.990;2022-10-31T11:22:39;7;5;
73414;PMS5003;61633;53.742;-2.990;2022-10-31T11:27:30;4;4;
73414;PMS5003;61633;53.742;-2.990;2022-10-31T11:32:21;8;5;
73414;PMS5003;61633;53.742;-2.990;2022-10-31T11:34:46;7;6;
73414;PMS5003;61633;53.742;-2.990;2022-10-31T11:37:12;5;4;
73414;PMS5003;61633;53.742;-2.990;2022-10-31T11:39:40;6;5;
73414;PMS5003;61633;53.742;-2.990;2022-10-31T11:42:02;6;4;
73414;PMS5003;61633;53.742;-2.990;2022-10-31T11:44:28;3;3;
73414;PMS5003;61633;53.742;-2.990;2022-10-31T11:46:54;5;4;
73414;PMS5003;61633;53.742;-2.990;2022-10-31T11:49:19;5;4;
73414;PMS5003;61633;53.742;-2.990;2022-10-31T11:51:47;5;4;
73414;PMS5003;61633;53.742;-2.990;2022-10-31T11:54:17;7;6;
73414;PMS5003;61633;53.742;-2.990;2022-10-31T11:56:40;4;4;
73414;PMS5003;61633;53.742;-2.990;2022-10-31T11:59:01;4;4;
73414;PMS5003;61633;53.742;-2.990;2022-10-31T12:01:26;5;5;
73414;PMS5003;61633;53.742;-2.990;2022-10-31T12:03:53;7;7;
73414;PMS5003;61633;53.742;-2.990;2022-10-31T12:06:18;7;6;
73414;PMS5003;61633;53.742;-2.990;2022-10-31T12:08:42;8;5;
73414;PMS5003;61633;53.742;-2.990;2022-10-31T12:11:11;7;6;
73414;PMS5003;61633;53.742;-2.990;2022-10-31T12:13:34;6;5;
73414;PMS5003;61633;53.742;-2.990;2022-10-31T12:15:59;7;6;
73414;PMS5003;61633;53.742;-2.990;2022-10-31T12:18:30;6;5;
73414;PMS5003;61633;53.742;-2.990;2022-10-31T12:20:52;8;6;
73414;PMS5003;61633;53.742;-2.990;2022-10-31T12:23:16;5;5;
73414;PMS5003;61633;53.742;-2.990;2022-10-31T12:25:41;8;8;
73414;PMS5003;61633;53.742;-2.990;2022-10-31T12:28:15;6;5;
73414;PMS5003;61633;53.742;-2.990;2022-10-31T12:30:34;4;4;
73414;PMS5003;61633;53.742;-2.990;2022-10-31T12:33:03;8;6;
73414;PMS5003;61633;53.742;-2.990;2022-10-31T12:35:25;5;5;
73414;PMS5003;61633;53.742;-2.990;2022-10-31T12:37:51;4;4;
73414;PMS5003;61633;53.742;-2.990;2022-10-31T12:40:23;5;4;
73414;PMS5003;61633;53.742;-2.990;2022-10-31T12:42:46;5;5;
73414;PMS5003;61633;53.742;-2.990;2022-10-31T12:45:09;6;5;
73414;PMS5003;61633;53.742;-2.990;2022-10-31T12:47:38;3;2;
73414;PMS5003;61633;53.742;-2.990;2022-10-31T12:49:56;7;5;
73414;PMS5003;61633;53.742;-2.990;2022-10-31T12:52:23;6;6;
73414;PMS5003;61633;53.742;-2.990;2022-10-31T12:54:49;5;5;
73414;PMS5003;61633;53.742;-2.990;2022-10-31T12:57:12;9;7;
73414;PMS5003;61633;53.742;-2.990;2022-10-31T12:59:36;9;5;
73414;PMS5003;61633;53.742;-2.990;2022-10-31T13:02:03;6;5;
73414;PMS5003;61633;53.742;-2.990;2022-10-31T13:04:33;6;6;
73414;PMS5003;61633;53.742;-2.990;2022-10-31T13:06:54;9;6;
73414;PMS5003;61633;53.742;-2.990;2022-10-31T13:09:19;11;8;
73414;PMS5003;61633;53.742;-2.990;2022-10-31T13:11:44;6;6;
73414;PMS5003;61633;53.742;-2.990;2022-10-31T13:14:11;10;8;
73414;PMS5003;61633;53.742;-2.990;2022-10-31T13:16:35;7;7;
73414;PMS5003;61633;53.742;-2.990;2022-10-31T13:19:01;6;6;
73414;PMS5003;61633;53.742;-2.990;2022-10-31T13:21:26;8;8;
73414;PMS5003;61633;53.742;-2.990;2022-10-31T13:23:51;10;7;
73414;PMS5003;61633;53.742;-2.990;2022-10-31T13:26:19;9;6;
73414;PMS5003;61633;53.742;-2.990;2022-10-31T13:28:43;10;8;
73414;PMS5003;61633;53.742;-2.990;2022-10-31T13:31:07;8;5;
73414;PMS5003;61633;53.742;-2.990;2022-10-31T13:33:34;9;9;
73414;PMS5003;61633;53.742;-2.990;2022-10-31T13:36:03;8;6;
73414;PMS5003;61633;53.742;-2.990;2022-10-31T13:38:26;7;6;
73414;PMS5003;61633;53.742;-2.990;2022-10-31T13:40:51;8;7;
73414;PMS5003;61633;53.742;-2.990;2022-10-31T13:43:18;8;8;
73414;PMS5003;61633;53.742;-2.990;2022-10-31T13:50:31;3;3;
73414;PMS5003;61633;53.742;-2.990;2022-10-31T13:57:47;9;8;
73414;PMS5003;61633;53.742;-2.990;2022-10-31T14:02:43;6;5;
73414;PMS5003;61633;53.742;-2.990;2022-10-31T14:05:05;4;4;
73414;PMS5003;61633;53.742;-2.990;2022-10-31T14:07:34;4;4;
73414;PMS5003;61633;53.742;-2.990;2022-10-31T14:09:55;6;5;
73414;PMS5003;61633;53.742;-2.990;2022-10-31T14:12:23;8;7;
73414;PMS5003;61633;53.742;-2.990;2022-10-31T14:14:46;6;6;
73414;PMS5003;61633;53.742;-2.990;2022-10-31T14:17:15;4;4;
73414;PMS5003;61633;53.742;-2.990;2022-10-31T14:19:36;4;3;
73414;PMS5003;61633;53.742;-2.990;2022-10-31T14:22:01;7;6;
73414;PMS5003;61633;53.742;-2.990;2022-10-31T14:24:33;10;9;
73414;PMS5003;61633;53.742;-2.990;2022-10-31T14:26:52;9;9;
73414;PMS5003;61633;53.742;-2.990;2022-10-31T14:29:21;15;13;
73414;PMS5003;61633;53.742;-2.990;2022-10-31T14:31:43;17;15;
73414;PMS5003;61633;53.742;-2.990;2022-10-31T14:36:36;29;25;
73414;PMS5003;61633;53.742;-2.990;2022-10-31T14:39:00;25;25;
73414;PMS5003;61633;53.742;-2.990;2022-10-31T14:41:29;25;23;
73414;PMS5003;61633;53.742;-2.990;2022-10-31T14:43:54;28;23;
73414;PMS5003;61633;53.742;-2.990;2022-10-31T14:46:18;24;22;
73414;PMS5003;61633;53.742;-2.990;2022-10-31T14:48:53;22;20;
73414;PMS5003;61633;53.742;-2.990;2022-10-31T14:51:09;22;21;
73414;PMS5003;61633;53.742;-2.990;2022-10-31T14:53:33;21;19;
73414;PMS5003;61633;53.742;-2.990;2022-10-31T14:55:57;15;15;
73414;PMS5003;61633;53.742;-2.990;2022-10-31T14:58:24;16;16;
73414;PMS5003;61633;53.742;-2.990;2022-10-31T15:00:49;19;16;
73414;PMS5003;61633;53.742;-2.990;2022-10-31T15:03:14;19;18;
73414;PMS5003;61633;53.742;-2.990;2022-10-31T15:05:41;16;14;
73414;PMS5003;61633;53.742;-2.990;2022-10-31T15:10:32;12;10;
73414;PMS5003;61633;53.742;-2.990;2022-10-31T15:12:56;8;8;
73414;PMS5003;61633;53.742;-2.990;2022-10-31T15:15:23;9;8;
73414;PMS5003;61633;53.742;-2.990;2022-10-31T15:17:48;8;8;
73414;PMS5003;61633;53.742;-2.990;2022-10-31T15:20:17;8;6;
73414;PMS5003;61633;53.742;-2.990;2022-10-31T15:22:39;5;5;
73414;PMS5003;61633;53.742;-2.990;2022-10-31T15:25:11;6;6;
73414;PMS5003;61633;53.742;-2.990;2022-10-31T15:27:30;10;7;
73414;PMS5003;61633;53.742;-2.990;2022-10-31T15:29:56;13;8;
73414;PMS5003;61633;53.742;-2.990;2022-10-31T15:32:21;9;7;
73414;PMS5003;61633;53.742;-2.990;2022-10-31T15:34:46;7;5;
73414;PMS5003;61633;53.742;-2.990;2022-10-31T15:37:12;6;5;
73414;PMS5003;61633;53.742;-2.990;2022-10-31T15:39:42;8;5;
73414;PMS5003;61633;53.742;-2.990;2022-10-31T15:42:02;7;6;
73414;PMS5003;61633;53.742;-2.990;2022-10-31T15:44:29;10;6;
73414;PMS5003;61633;53.742;-2.990;2022-10-31T15:46:55;6;6;
73414;PMS5003;61633;53.742;-2.990;2022-10-31T15:49:23;7;6;
73414;PMS5003;61633;53.742;-2.990;2022-10-31T15:51:44;4;4;
73414;PMS5003;61633;53.742;-2.990;2022-10-31T15:54:10;6;6;
73414;PMS5003;61633;53.742;-2.990;2022-10-31T15:56:35;5;5;
73414;PMS5003;61633;53.742;-2.990;2022-10-31T15:59:01;10;8;
73414;PMS5003;61633;53.742;-2.990;2022-10-31T16:01:27;7;6;
73414;PMS5003;61633;53.742;-2.990;2022-10-31T16:03:58;7;6;
73414;PMS5003;61633;53.742;-2.990;2022-10-31T16:06:18;5;5;
73414;PMS5003;61633;53.742;-2.990;2022-10-31T16:08:44;11;8;
73414;PMS5003;61633;53.742;-2.990;2022-10-31T16:11:16;6;5;
73414;PMS5003;61633;53.742;-2.990;2022-10-31T16:13:34;7;6;
73414;PMS5003;61633;53.742;-2.990;2022-10-31T16:15:59;8;7;
73414;PMS5003;61633;53.742;-2.990;2022-10-31T16:18:24;9;7;
73414;PMS5003;61633;53.742;-2.990;2022-10-31T16:20:50;6;6;
73414;PMS5003;61633;53.742;-2.990;2022-10-31T16:23:16;5;5;
73414;PMS5003;61633;53.742;-2.990;2022-10-31T16:25:41;10;7;
73414;PMS5003;61633;53.742;-2.990;2022-10-31T16:30:36;5;5;
73414;PMS5003;61633;53.742;-2.990;2022-10-31T16:32:58;6;5;
73414;PMS5003;61633;53.742;-2.990;2022-10-31T16:35:25;10;8;
73414;PMS5003;61633;53.742;-2.990;2022-10-31T16:37:48;9;5;
73414;PMS5003;61633;53.742;-2.990;2022-10-31T16:40:13;7;5;
73414;PMS5003;61633;53.742;-2.990;2022-10-31T16:42:39;7;7;
73414;PMS5003;61633;53.742;-2.990;2022-10-31T16:45:06;11;7;
73414;PMS5003;61633;53.742;-2.990;2022-10-31T16:47:29;7;7;
73414;PMS5003;61633;53.742;-2.990;2022-10-31T16:49:55;10;8;
73414;PMS5003;61633;53.742;-2.990;2022-10-31T16:52:20;7;6;
73414;PMS5003;61633;53.742;-2.990;2022-10-31T16:54:46;9;7;
73414;PMS5003;61633;53.742;-2.990;2022-10-31T16:57:14;8;8;
73414;PMS5003;61633;53.742;-2.990;2022-10-31T16:59:37;7;6;
73414;PMS5003;61633;53.742;-2.990;2022-10-31T17:02:02;7;7;
73414;PMS5003;61633;53.742;-2.990;2022-10-31T17:04:27;9;8;
73414;PMS5003;61633;53.742;-2.990;2022-10-31T17:06:53;6;6;
73414;PMS5003;61633;53.742;-2.990;2022-10-31T17:09:18;7;6;
73414;PMS5003;61633;53.742;-2.990;2022-10-31T17:11:45;8;7;
73414;PMS5003;61633;53.742;-2.990;2022-10-31T17:14:09;11;9;
73414;PMS5003;61633;53.742;-2.990;2022-10-31T17:16:35;8;7;
73414;PMS5003;61633;53.742;-2.990;2022-10-31T17:19:00;6;6;
73414;PMS5003;61633;53.742;-2.990;2022-10-31T17:21:26;10;9;
73414;PMS5003;61633;53.742;-2.990;2022-10-31T17:23:51;8;7;
73414;PMS5003;61633;53.742;-2.990;2022-10-31T17:26:17;10;10;
73414;PMS5003;61633;53.742;-2.990;2022-10-31T17:28:42;9;8;
73414;PMS5003;61633;53.742;-2.990;2022-10-31T17:31:09;8;8;
73414;PMS5003;61633;53.742;-2.990;2022-10-31T17:33:33;8;7;
73414;PMS5003;61633;53.742;-2.990;2022-10-31T17:36:01;8;7;
73414;PMS5003;61633;53.742;-2.990;2022-10-31T17:38:24;9;7;
73414;PMS5003;61633;53.742;-2.990;2022-10-31T17:40:49;9;8;
73414;PMS5003;61633;53.742;-2.990;2022-10-31T17:43:15;7;7;
73414;PMS5003;61633;53.742;-2.990;2022-10-31T17:45:41;9;9;
73414;PMS5003;61633;53.742;-2.990;2022-10-31T17:48:06;8;7;
73414;PMS5003;61633;53.742;-2.990;2022-10-31T17:50:32;5;5;
73414;PMS5003;61633;53.742;-2.990;2022-10-31T17:52:57;9;7;
73414;PMS5003;61633;53.742;-2.990;2022-10-31T17:55:23;12;12;